createdAt,value
2023-05-22T00:01:06.564Z,101447.81
2023-05-22T00:03:33.363Z,101448.13
2023-05-22T00:06:00.171Z,101447.38
2023-05-22T00:08:29.415Z,101452.06
2023-05-22T00:10:56.643Z,101443.00
2023-05-22T00:13:23.391Z,101445.09
2023-05-22T00:15:49.997Z,101434.72
2023-05-22T00:18:16.760Z,101436.84
2023-05-22T00:20:46.502Z,101432.75
2023-05-22T00:23:15.566Z,101441.75
2023-05-22T00:25:42.425Z,101431.34
2023-05-22T00:28:08.986Z,101440.66
2023-05-22T00:30:37.081Z,101432.13
2023-05-22T00:33:04.250Z,101426.56
2023-05-22T00:35:31.041Z,101428.16
2023-05-22T00:37:57.723Z,101430.59
2023-05-22T00:40:24.462Z,101431.88
2023-05-22T00:42:51.004Z,101426.53
2023-05-22T00:45:17.700Z,101427.47
2023-05-22T00:47:44.368Z,101426.28
2023-05-22T00:50:12.475Z,101428.31
2023-05-22T00:52:42.552Z,101416.19
2023-05-22T00:55:10.875Z,101422.19
2023-05-22T00:57:41.952Z,101426.88
2023-05-22T01:00:13.142Z,101422.88
2023-05-22T01:02:42.953Z,101421.63
2023-05-22T01:05:13.076Z,101414.59
2023-05-22T01:07:40.025Z,101415.28
2023-05-22T01:10:07.361Z,101422.66
2023-05-22T01:12:59.917Z,101419.06
2023-05-22T01:15:43.326Z,101411.22
2023-05-22T01:18:32.145Z,101413.53
2023-05-22T01:21:04.620Z,101418.50
2023-05-22T01:23:57.507Z,101423.09
2023-05-22T01:26:42.587Z,101414.47
2023-05-22T01:29:26.713Z,101411.25
2023-05-22T01:31:55.439Z,101408.88
2023-05-22T01:34:22.136Z,101412.69
2023-05-22T01:36:50.841Z,101421.19
2023-05-22T01:39:17.904Z,101418.59
2023-05-22T01:41:44.787Z,101413.34
2023-05-22T01:44:11.435Z,101415.66
2023-05-22T01:46:37.994Z,101411.09
2023-05-22T01:49:04.673Z,101411.41
2023-05-22T01:51:53.828Z,101415.88
2023-05-22T01:54:42.300Z,101420.03
2023-05-22T01:57:27.512Z,101417.78
2023-05-22T02:00:00.011Z,101413.69
2023-05-22T02:02:28.317Z,101418.06
2023-05-22T02:05:00.882Z,101428.16
2023-05-22T02:07:28.987Z,101425.78
2023-05-22T02:09:57.021Z,101420.84
2023-05-22T02:12:24.505Z,101419.28
2023-05-22T02:14:51.605Z,101416.72
2023-05-22T02:17:18.971Z,101417.84
2023-05-22T02:19:45.712Z,101418.81
2023-05-22T02:22:15.922Z,101419.16
2023-05-22T02:24:46.765Z,101416.03
2023-05-22T02:27:13.498Z,101413.81
2023-05-22T02:29:40.483Z,101415.91
2023-05-22T02:32:07.289Z,101410.56
2023-05-22T02:34:35.075Z,101408.84
2023-05-22T02:37:05.576Z,101416.41
2023-05-22T02:39:32.341Z,101410.41
2023-05-22T02:41:58.966Z,101409.72
2023-05-22T02:44:25.533Z,101412.84
2023-05-22T02:46:52.123Z,101406.16
2023-05-22T02:49:18.798Z,101402.91
2023-05-22T02:51:47.669Z,101409.94
2023-05-22T02:54:15.766Z,101401.19
2023-05-22T02:56:43.418Z,101407.72
2023-05-22T02:59:10.266Z,101400.69
2023-05-22T03:01:38.724Z,101395.78
2023-05-22T03:04:06.415Z,101395.78
2023-05-22T03:06:34.323Z,101383.41
2023-05-22T03:09:01.233Z,101387.25
2023-05-22T03:11:27.858Z,101396.56
2023-05-22T03:13:54.398Z,101388.94
2023-05-22T03:16:21.005Z,101395.22
2023-05-22T03:18:47.892Z,101393.66
2023-05-22T03:21:14.450Z,101393.84
2023-05-22T03:23:40.973Z,101388.69
2023-05-22T03:26:07.645Z,101387.13
2023-05-22T03:28:34.298Z,101392.31
2023-05-22T03:31:01.245Z,101393.16
2023-05-22T03:33:27.791Z,101390.56
2023-05-22T03:35:54.410Z,101391.53
2023-05-22T03:38:20.962Z,101386.97
2023-05-22T03:40:47.834Z,101392.13
2023-05-22T03:43:14.711Z,101391.69
2023-05-22T03:45:41.308Z,101395.03
2023-05-22T03:48:08.410Z,101393.34
2023-05-22T03:50:35.237Z,101395.66
2023-05-22T03:53:02.152Z,101388.06
2023-05-22T03:55:30.981Z,101384.44
2023-05-22T03:57:57.979Z,101391.16
2023-05-22T04:00:26.772Z,101385.53
2023-05-22T04:02:55.064Z,101387.16
2023-05-22T04:05:22.520Z,101389.53
2023-05-22T04:07:49.658Z,101385.66
2023-05-22T04:10:16.905Z,101384.31
2023-05-22T04:12:43.891Z,101379.66
2023-05-22T04:15:11.016Z,101387.00
2023-05-22T04:17:41.182Z,101383.00
2023-05-22T04:20:09.023Z,101381.59
2023-05-22T04:22:36.913Z,101383.97
2023-05-22T04:25:03.731Z,101384.66
2023-05-22T04:27:30.630Z,101380.00
2023-05-22T04:30:00.110Z,101379.38
2023-05-22T04:32:27.615Z,101384.53
2023-05-22T04:34:54.271Z,101380.72
2023-05-22T04:37:21.047Z,101372.72
2023-05-22T04:39:47.871Z,101377.69
2023-05-22T04:42:15.886Z,101388.16
2023-05-22T04:44:42.662Z,101388.16
2023-05-22T04:47:14.513Z,101380.34
2023-05-22T04:49:45.972Z,101381.28
2023-05-22T04:52:12.685Z,101381.28
2023-05-22T04:54:39.420Z,101370.91
2023-05-22T04:57:06.129Z,101373.66
2023-05-22T04:59:38.080Z,101374.03
2023-05-22T05:02:07.515Z,101368.91
2023-05-22T05:04:34.279Z,101369.50
2023-05-22T05:07:02.413Z,101365.66
2023-05-22T05:09:29.187Z,101372.72
2023-05-22T05:11:55.771Z,101362.16
2023-05-22T05:14:22.342Z,101366.06
2023-05-22T05:16:48.957Z,101370.72
2023-05-22T05:19:16.616Z,101366.06
2023-05-22T05:21:43.534Z,101373.09
2023-05-22T05:24:10.132Z,101364.34
2023-05-22T05:26:36.697Z,101362.44
2023-05-22T05:29:03.260Z,101368.53
2023-05-22T05:31:29.941Z,101377.59
2023-05-22T05:33:58.148Z,101369.31
2023-05-22T05:36:25.202Z,101379.34
2023-05-22T05:38:51.694Z,101376.53
2023-05-22T05:41:19.107Z,101372.81
2023-05-22T05:43:45.669Z,101380.66
2023-05-22T05:46:12.882Z,101378.06
2023-05-22T05:48:39.508Z,101382.06
2023-05-22T05:51:06.135Z,101379.47
2023-05-22T05:53:32.819Z,101386.81
2023-05-22T05:55:59.444Z,101388.13
2023-05-22T05:58:25.977Z,101379.22
2023-05-22T06:00:52.469Z,101375.28
2023-05-22T06:03:19.078Z,101382.72
2023-05-22T06:05:49.805Z,101376.75
2023-05-22T06:08:16.416Z,101377.78
2023-05-22T06:10:42.929Z,101368.69
2023-05-22T06:13:09.444Z,101379.19
2023-05-22T06:15:36.007Z,101371.38
2023-05-22T06:18:02.611Z,101374.94
2023-05-22T06:20:29.250Z,101375.28
2023-05-22T06:22:55.986Z,101364.38
2023-05-22T06:25:23.734Z,101375.84
2023-05-22T06:27:50.251Z,101372.75
2023-05-22T06:30:25.319Z,101375.34
2023-05-22T06:32:58.937Z,101370.72
2023-05-22T06:35:25.584Z,101375.78
2023-05-22T06:37:52.296Z,101371.78
2023-05-22T06:40:18.866Z,101373.47
2023-05-22T06:42:45.538Z,101370.22
2023-05-22T06:45:12.100Z,101387.38
2023-05-22T06:47:38.716Z,101378.34
2023-05-22T06:50:06.716Z,101376.63
2023-05-22T06:52:33.818Z,101375.13
2023-05-22T06:55:04.570Z,101387.16
2023-05-22T06:57:32.264Z,101369.53
2023-05-22T06:59:58.949Z,101371.38
2023-05-22T07:02:26.170Z,101371.66
2023-05-22T07:04:53.580Z,101362.63
2023-05-22T07:07:20.532Z,101371.06
2023-05-22T07:09:47.174Z,101375.88
2023-05-22T07:12:13.781Z,101376.97
2023-05-22T07:14:40.295Z,101376.56
2023-05-22T07:17:06.911Z,101378.97
2023-05-22T07:19:33.975Z,101373.06
2023-05-22T07:22:00.587Z,101376.84
2023-05-22T07:24:27.244Z,101370.72
2023-05-22T07:26:53.859Z,101369.69
2023-05-22T07:29:22.984Z,101370.97
2023-05-22T07:31:50.078Z,101364.91
2023-05-22T07:34:17.322Z,101371.50
2023-05-22T07:36:43.860Z,101374.44
2023-05-22T07:39:10.361Z,101377.88
2023-05-22T07:41:36.950Z,101369.13
2023-05-22T07:44:03.452Z,101367.81
2023-05-22T07:46:30.032Z,101373.06
2023-05-22T07:48:56.735Z,101370.84
2023-05-22T07:51:23.298Z,101365.72
2023-05-22T07:53:49.827Z,101368.41
2023-05-22T07:56:17.614Z,101365.47
2023-05-22T07:58:44.362Z,101361.69
2023-05-22T08:01:11.116Z,101363.22
2023-05-22T08:03:37.902Z,101367.81
2023-05-22T08:06:04.783Z,101356.66
2023-05-22T08:08:32.166Z,101367.41
2023-05-22T08:13:28.183Z,101360.56
2023-05-22T08:16:00.297Z,101360.81
2023-05-22T08:18:29.173Z,101357.41
2023-05-22T08:20:56.201Z,101354.94
2023-05-22T08:23:23.094Z,101357.41
2023-05-22T08:25:50.273Z,101344.69
2023-05-22T08:28:17.293Z,101350.38
2023-05-22T08:30:44.088Z,101341.44
2023-05-22T08:33:12.137Z,101350.59
2023-05-22T08:35:39.155Z,101343.34
2023-05-22T08:38:05.863Z,101344.31
2023-05-22T08:40:37.738Z,101342.28
2023-05-22T08:43:07.838Z,101343.28
2023-05-22T08:45:34.787Z,101335.84
2023-05-22T08:48:06.509Z,101346.28
2023-05-22T08:50:37.110Z,101338.59
2023-05-22T08:53:06.842Z,101337.97
2023-05-22T08:55:34.341Z,101333.16
2023-05-22T08:58:01.414Z,101323.31
2023-05-22T09:00:29.727Z,101317.94
2023-05-22T09:02:57.662Z,101318.91
2023-05-22T09:05:26.719Z,101316.09
2023-05-22T09:07:56.539Z,101329.84
2023-05-22T09:10:25.575Z,101321.59
2023-05-22T09:13:09.279Z,101320.09
2023-05-22T09:15:37.195Z,101312.41
2023-05-22T09:18:05.003Z,101322.91
2023-05-22T09:20:39.139Z,101318.34
2023-05-22T09:23:19.827Z,101309.56
2023-05-22T09:25:46.668Z,101311.28
2023-05-22T09:28:13.637Z,101308.91
2023-05-22T09:30:42.378Z,101305.56
2023-05-22T09:33:12.910Z,101297.47
2023-05-22T09:35:39.896Z,101302.78
2023-05-22T09:38:06.549Z,101283.66
2023-05-22T09:40:35.046Z,101293.94
2023-05-22T09:43:06.560Z,101290.44
2023-05-22T09:45:35.986Z,101286.91
2023-05-22T09:48:04.345Z,101290.31
2023-05-22T09:50:31.623Z,101293.13
2023-05-22T09:53:02.069Z,101288.22
2023-05-22T09:55:29.147Z,101294.97
2023-05-22T09:57:56.957Z,101300.31
2023-05-22T10:00:25.126Z,101281.47
2023-05-22T10:03:24.623Z,101279.81
2023-05-22T10:05:54.277Z,101277.19
2023-05-22T10:08:25.142Z,101279.66
2023-05-22T10:10:53.633Z,101274.75
2023-05-22T10:13:21.457Z,101280.00
2023-05-22T10:15:49.486Z,101281.91
2023-05-22T10:18:17.479Z,101271.94
2023-05-22T10:20:46.810Z,101262.72
2023-05-22T10:23:15.323Z,101274.38
2023-05-22T10:25:42.979Z,101273.59
2023-05-22T10:28:10.825Z,101269.06
2023-05-22T10:30:40.864Z,101264.47
2023-05-22T10:33:16.766Z,101267.22
2023-05-22T10:35:58.979Z,101265.75
2023-05-22T10:38:28.328Z,101273.28
2023-05-22T10:40:55.887Z,101260.13
2023-05-22T10:43:22.995Z,101268.28
2023-05-22T10:45:49.821Z,101259.28
2023-05-22T10:48:22.204Z,101255.63
2023-05-22T10:50:54.774Z,101252.53
2023-05-22T10:53:24.688Z,101249.63
2023-05-22T10:55:53.308Z,101245.97
2023-05-22T10:58:38.295Z,101239.94
2023-05-22T11:01:21.395Z,101242.81
2023-05-22T11:04:11.599Z,101236.28
2023-05-22T11:06:46.320Z,101231.59
2023-05-22T11:09:31.961Z,101232.53
2023-05-22T11:12:31.045Z,101230.44
2023-05-22T11:15:06.154Z,101224.41
2023-05-22T11:17:36.191Z,101227.69
2023-05-22T11:20:05.514Z,101230.00
2023-05-22T11:22:37.176Z,101224.41
2023-05-22T11:25:09.652Z,101214.78
2023-05-22T11:27:37.283Z,101219.25
2023-05-22T11:30:04.167Z,101216.31
2023-05-22T11:32:31.003Z,101221.97
2023-05-22T11:34:57.914Z,101209.94
2023-05-22T11:37:24.495Z,101219.69
2023-05-22T11:39:56.777Z,101217.88
2023-05-22T11:42:23.713Z,101214.16
2023-05-22T11:44:50.414Z,101210.69
2023-05-22T11:47:16.997Z,101209.84
2023-05-22T11:49:44.060Z,101205.44
2023-05-22T11:52:10.947Z,101206.47
2023-05-22T11:54:38.925Z,101200.56
2023-05-22T11:57:08.330Z,101204.16
2023-05-22T11:59:35.694Z,101201.38
2023-05-22T12:02:02.281Z,101203.34
2023-05-22T12:04:28.845Z,101190.56
2023-05-22T12:06:56.084Z,101194.81
2023-05-22T12:09:23.228Z,101189.13
2023-05-22T12:11:49.910Z,101192.91
2023-05-22T12:14:16.579Z,101192.25
2023-05-22T12:16:44.449Z,101181.19
2023-05-22T12:19:12.096Z,101185.09
2023-05-22T12:21:39.439Z,101178.47
2023-05-22T12:24:06.424Z,101179.56
2023-05-22T12:26:33.101Z,101177.03
2023-05-22T12:29:00.268Z,101187.84
2023-05-22T12:31:27.188Z,101178.41
2023-05-22T12:33:55.139Z,101186.88
2023-05-22T12:36:31.157Z,101185.06
2023-05-22T12:38:57.836Z,101184.56
2023-05-22T12:41:24.321Z,101185.00
2023-05-22T12:43:51.070Z,101174.91
2023-05-22T12:46:17.755Z,101179.59
2023-05-22T12:48:44.271Z,101173.91
2023-05-22T12:51:10.917Z,101173.88
2023-05-22T12:53:37.403Z,101175.09
2023-05-22T12:56:04.173Z,101155.88
2023-05-22T12:58:30.682Z,101170.00
2023-05-22T13:00:57.221Z,101165.00
2023-05-22T13:03:23.907Z,101173.19
2023-05-22T13:05:50.415Z,101156.09
2023-05-22T13:08:17.004Z,101163.22
2023-05-22T13:10:43.586Z,101164.91
2023-05-22T13:13:10.076Z,101149.31
2023-05-22T13:15:36.631Z,101155.53
2023-05-22T13:18:04.087Z,101155.44
2023-05-22T13:20:30.666Z,101149.88
2023-05-22T13:22:57.404Z,101149.88
2023-05-22T13:25:24.441Z,101152.88
2023-05-22T13:27:51.058Z,101142.41
2023-05-22T13:30:17.615Z,101151.28
2023-05-22T13:32:44.168Z,101139.50
2023-05-22T13:35:10.770Z,101142.00
2023-05-22T13:37:37.861Z,101132.66
2023-05-22T13:40:04.894Z,101130.66
2023-05-22T13:42:31.438Z,101131.84
2023-05-22T13:44:58.253Z,101133.94
2023-05-22T13:47:25.965Z,101129.31
2023-05-22T13:49:52.523Z,101127.34
2023-05-22T13:52:18.999Z,101132.44
2023-05-22T13:54:45.667Z,101124.88
2023-05-22T13:57:12.250Z,101125.09
2023-05-22T13:59:38.803Z,101122.63
2023-05-22T14:02:05.784Z,101110.88
2023-05-22T14:04:32.337Z,101103.03
2023-05-22T14:06:59.093Z,101108.19
2023-05-22T14:09:25.774Z,101109.44
2023-05-22T14:11:52.313Z,101115.91
2023-05-22T14:14:23.883Z,101106.59
2023-05-22T14:16:51.613Z,101102.41
2023-05-22T14:19:19.185Z,101109.75
2023-05-22T14:21:48.419Z,101104.19
2023-05-22T14:24:15.039Z,101107.97
2023-05-22T14:26:41.659Z,101108.06
2023-05-22T14:29:08.302Z,101101.91
2023-05-22T14:31:45.881Z,101099.41
2023-05-22T14:34:12.636Z,101094.97
2023-05-22T14:36:39.106Z,101088.63
2023-05-22T14:39:05.616Z,101090.97
2023-05-22T14:41:32.116Z,101090.06
2023-05-22T14:43:58.635Z,101081.72
2023-05-22T14:46:25.231Z,101074.34
2023-05-22T14:48:51.797Z,101070.66
2023-05-22T14:51:21.746Z,101064.69
2023-05-22T14:53:48.460Z,101069.50
2023-05-22T14:56:14.986Z,101074.19
2023-05-22T14:58:41.555Z,101070.03
2023-05-22T15:01:08.040Z,101065.63
2023-05-22T15:03:34.556Z,101058.38
2023-05-22T15:06:01.110Z,101062.34
2023-05-22T15:08:27.646Z,101060.75
2023-05-22T15:10:54.168Z,101051.69
2023-05-22T15:13:21.506Z,101052.41
2023-05-22T15:15:48.030Z,101048.25
2023-05-22T15:18:14.667Z,101052.75
2023-05-22T15:20:41.231Z,101043.44
2023-05-22T15:23:07.766Z,101038.50
2023-05-22T15:25:36.437Z,101040.78
2023-05-22T15:28:06.379Z,101034.63
2023-05-22T15:30:38.863Z,101033.19
2023-05-22T15:33:05.729Z,101028.63
2023-05-22T15:35:32.328Z,101031.16
2023-05-22T15:37:59.041Z,101016.06
2023-05-22T15:40:25.710Z,101017.25
2023-05-22T15:42:53.197Z,101022.53
2023-05-22T15:45:20.270Z,101014.50
2023-05-22T15:47:47.411Z,101011.41
2023-05-22T15:50:14.102Z,101017.63
2023-05-22T15:52:40.999Z,101007.88
2023-05-22T15:55:07.946Z,101012.47
2023-05-22T15:57:34.571Z,101003.53
2023-05-22T16:00:01.199Z,101004.28
2023-05-22T16:02:27.820Z,101009.16
2023-05-22T16:04:54.331Z,101001.47
2023-05-22T16:07:20.887Z,101006.84
2023-05-22T16:09:47.404Z,101000.50
2023-05-22T16:12:13.934Z,100998.75
2023-05-22T16:14:40.599Z,100989.13
2023-05-22T16:17:07.674Z,100992.38
2023-05-22T16:19:34.317Z,100994.44
2023-05-22T16:22:01.023Z,100986.69
2023-05-22T16:24:27.540Z,100990.75
2023-05-22T16:26:56.368Z,100992.31
2023-05-22T16:29:22.907Z,100981.63
2023-05-22T16:31:49.580Z,100989.09
2023-05-22T16:34:16.182Z,100992.53
2023-05-22T16:36:42.822Z,100986.88
2023-05-22T16:39:09.503Z,100986.81
2023-05-22T16:41:39.144Z,100988.75
2023-05-22T16:44:05.761Z,100995.66
2023-05-22T16:46:32.424Z,100995.88
2023-05-22T16:48:59.072Z,101003.69
2023-05-22T16:51:25.663Z,100994.88
2023-05-22T16:53:52.488Z,101001.97
2023-05-22T16:56:20.806Z,100997.53
2023-05-22T16:58:47.724Z,100998.81
2023-05-22T17:01:14.702Z,101003.63
2023-05-22T17:03:41.827Z,101001.03
2023-05-22T17:06:09.019Z,101002.97
2023-05-22T17:08:35.711Z,101007.38
2023-05-22T17:11:02.330Z,101000.63
2023-05-22T17:13:28.917Z,100998.75
2023-05-22T17:15:55.539Z,100998.38
2023-05-22T17:18:22.131Z,100990.94
2023-05-22T17:20:50.284Z,100988.56
2023-05-22T17:23:17.720Z,100998.00
2023-05-22T17:25:46.592Z,100993.59
2023-05-22T17:28:14.474Z,100985.97
2023-05-22T17:30:42.662Z,100978.09
2023-05-22T17:33:09.933Z,100976.91
2023-05-22T17:35:36.525Z,100983.38
2023-05-22T17:38:03.246Z,100982.25
2023-05-22T17:40:43.124Z,100970.56
2023-05-22T17:43:11.259Z,100967.09
2023-05-22T17:45:37.969Z,100977.22
2023-05-22T17:48:04.914Z,100973.13
2023-05-22T17:50:31.588Z,100986.25
2023-05-22T17:52:58.286Z,100973.91
2023-05-22T17:55:24.871Z,100971.56
2023-05-22T17:57:51.563Z,100968.66
2023-05-22T18:00:18.653Z,100970.97
2023-05-22T18:02:45.657Z,100959.31
2023-05-22T18:05:12.450Z,100964.16
2023-05-22T18:07:39.538Z,100962.09
2023-05-22T18:10:06.891Z,100969.28
2023-05-22T18:12:34.501Z,100970.47
2023-05-22T18:15:02.598Z,100968.97
2023-05-22T18:17:29.103Z,100965.84
2023-05-22T18:19:55.885Z,100963.44
2023-05-22T18:22:22.475Z,100966.16
2023-05-22T18:24:49.213Z,100963.91
2023-05-22T18:27:15.769Z,100959.97
2023-05-22T18:29:42.375Z,100970.88
2023-05-22T18:32:10.828Z,100965.06
2023-05-22T18:34:37.820Z,100963.22
2023-05-22T18:37:04.757Z,100957.38
2023-05-22T18:39:31.569Z,100963.88
2023-05-22T18:41:58.569Z,100960.47
2023-05-22T18:44:25.366Z,100958.47
2023-05-22T18:46:52.045Z,100961.28
2023-05-22T18:49:18.882Z,100956.16
2023-05-22T18:51:45.817Z,100956.00
2023-05-22T18:54:12.382Z,100958.91
2023-05-22T18:56:39.345Z,100958.47
2023-05-22T18:59:05.993Z,100966.53
2023-05-22T19:01:33.179Z,100969.34
2023-05-22T19:04:00.560Z,100971.00
2023-05-22T19:06:29.858Z,100977.44
2023-05-22T19:08:56.425Z,100973.56
2023-05-22T19:11:23.018Z,100971.72
2023-05-22T19:13:50.817Z,100967.97
2023-05-22T19:16:17.507Z,100973.72
2023-05-22T19:18:44.129Z,100978.91
2023-05-22T19:21:10.845Z,100984.81
2023-05-22T19:23:38.595Z,100988.72
2023-05-22T19:26:05.427Z,100977.31
2023-05-22T19:28:32.366Z,100987.84
2023-05-22T19:31:00.093Z,100992.75
2023-05-22T19:33:27.292Z,100991.28
2023-05-22T19:35:53.848Z,100988.38
2023-05-22T19:38:20.431Z,100998.06
2023-05-22T19:40:47.017Z,100997.00
2023-05-22T19:43:13.777Z,100992.50
2023-05-22T19:45:40.530Z,100996.53
2023-05-22T19:48:07.225Z,101005.69
2023-05-22T19:50:35.492Z,101004.50
2023-05-22T19:53:02.247Z,101001.16
2023-05-22T19:55:28.962Z,101000.31
2023-05-22T19:57:55.812Z,101000.94
2023-05-22T20:00:22.873Z,100998.00
2023-05-22T20:02:50.149Z,100995.06
2023-05-22T20:05:16.961Z,101006.56
2023-05-22T20:07:43.908Z,101002.88
2023-05-22T20:10:12.296Z,101012.03
2023-05-22T20:12:40.007Z,101003.13
2023-05-22T20:15:08.591Z,101009.47
2023-05-22T20:17:36.020Z,101011.41
2023-05-22T20:20:02.649Z,101009.66
2023-05-22T20:22:29.199Z,101012.44
2023-05-22T20:24:55.953Z,101017.88
2023-05-22T20:27:22.562Z,101011.72
2023-05-22T20:29:51.808Z,101005.13
2023-05-22T20:32:18.279Z,101006.38
2023-05-22T20:34:45.500Z,101001.84
2023-05-22T20:37:13.623Z,101001.84
2023-05-22T20:39:43.082Z,101010.00
2023-05-22T20:42:11.627Z,101013.66
2023-05-22T20:44:38.259Z,101005.13
2023-05-22T20:47:05.880Z,101006.09
2023-05-22T20:49:34.811Z,101004.53
2023-05-22T20:52:01.949Z,100999.00
2023-05-22T20:54:33.958Z,101002.03
2023-05-22T20:57:03.856Z,100992.00
2023-05-22T20:59:30.975Z,100996.72
2023-05-22T21:01:57.836Z,101008.09
2023-05-22T21:04:24.750Z,101002.75
2023-05-22T21:06:51.418Z,101013.69
2023-05-22T21:09:18.188Z,101006.88
2023-05-22T21:11:44.732Z,101013.06
2023-05-22T21:14:11.390Z,101010.72
2023-05-22T21:16:39.534Z,101009.25
2023-05-22T21:19:07.257Z,101011.63
2023-05-22T21:21:35.591Z,101009.41
2023-05-22T21:24:02.144Z,101012.41
2023-05-22T21:26:28.635Z,101010.78
2023-05-22T21:28:55.312Z,101009.84
2023-05-22T21:31:21.854Z,101014.22
2023-05-22T21:33:48.386Z,101014.22
2023-05-22T21:36:14.930Z,101012.69
2023-05-22T21:38:41.394Z,101005.66
2023-05-22T21:41:07.943Z,101003.72
2023-05-22T21:43:34.480Z,101000.19
2023-05-22T21:46:00.973Z,101010.78
2023-05-22T21:48:27.462Z,101006.50
2023-05-22T21:50:54.095Z,101005.66
2023-05-22T21:53:21.048Z,100993.25
2023-05-22T21:55:47.647Z,101005.66
2023-05-22T21:58:14.291Z,101003.31
2023-05-22T22:00:41.161Z,101003.31
2023-05-22T22:03:08.524Z,101005.97
2023-05-22T22:05:35.974Z,101000.75
2023-05-22T22:08:02.526Z,100992.22
2023-05-22T22:10:29.052Z,100992.22
2023-05-22T22:12:55.650Z,100999.94
2023-05-22T22:15:22.491Z,100998.41
2023-05-22T22:17:50.144Z,100988.41
2023-05-22T22:20:18.663Z,100986.91
2023-05-22T22:22:49.083Z,100981.78
2023-05-22T22:25:15.666Z,100985.38
2023-05-22T22:27:42.228Z,100981.78
2023-05-22T22:30:09.883Z,100973.00
2023-05-22T22:32:37.273Z,100974.06
2023-05-22T22:35:03.975Z,100976.63
2023-05-22T22:37:31.060Z,100971.50
2023-05-22T22:39:57.599Z,100964.91
2023-05-22T22:42:24.789Z,100956.38
2023-05-22T22:44:51.276Z,100968.97
2023-05-22T22:47:18.083Z,100964.06
2023-05-22T22:49:44.576Z,100966.22
2023-05-22T22:52:11.236Z,100966.41
2023-05-22T22:54:37.921Z,100969.50
2023-05-22T22:57:04.613Z,100963.63
2023-05-22T22:59:31.753Z,100961.47
2023-05-22T23:01:58.286Z,100951.63
2023-05-22T23:04:24.937Z,100954.81
2023-05-22T23:06:52.674Z,100940.25
2023-05-22T23:09:19.254Z,100937.94
2023-05-22T23:11:45.757Z,100941.56
2023-05-22T23:14:13.432Z,100938.16
2023-05-22T23:16:42.864Z,100943.28
2023-05-22T23:19:10.934Z,100942.41
2023-05-22T23:21:37.539Z,100939.63
2023-05-22T23:24:04.929Z,100940.81
2023-05-22T23:26:32.265Z,100936.41
2023-05-22T23:28:59.869Z,100939.19
2023-05-22T23:31:30.463Z,100934.16
2023-05-22T23:33:57.715Z,100934.16
2023-05-22T23:36:24.766Z,100928.09
2023-05-22T23:38:51.312Z,100926.16
2023-05-22T23:41:18.556Z,100917.22
2023-05-22T23:43:46.253Z,100910.81
2023-05-22T23:46:13.973Z,100907.19
2023-05-22T23:48:41.709Z,100904.63
2023-05-22T23:51:14.347Z,100906.00
2023-05-22T23:53:42.032Z,100905.47
2023-05-22T23:56:09.096Z,100901.16
2023-05-22T23:58:35.733Z,100889.88
